createdAt,value
2019-06-20T02:11:20.772Z,98862.25
2019-06-20T02:12:56.682Z,98988.37
2019-06-20T02:14:31.028Z,98988.37
2019-06-20T02:16:07.430Z,98978.85
2019-06-20T02:17:42.079Z,98978.85
2019-06-20T02:19:17.043Z,98987.47
2019-06-20T02:20:58.237Z,98992.45
2019-06-20T02:22:33.155Z,98993.79
2019-06-20T02:24:07.497Z,98994.99
2019-06-20T02:25:43.930Z,98991.12
2019-06-20T02:27:18.372Z,98998.16
2019-06-20T02:28:53.315Z,98992.05
2019-06-20T02:34:05.903Z,99001.68
2019-06-20T02:35:40.829Z,99006.53
2019-06-20T02:37:15.184Z,99001.08
2019-06-20T02:38:50.107Z,98990.22
2019-06-20T02:40:24.504Z,98994.92
2019-06-20T02:41:59.858Z,98986.28
2019-06-20T02:43:34.203Z,98992.25
2019-06-20T02:45:08.970Z,98992.25
2019-06-20T02:46:43.361Z,98998.33
2019-06-20T02:48:18.304Z,98991.84
2019-06-20T02:49:52.649Z,99001.38
2019-06-20T02:51:28.028Z,98973.45
2019-06-20T02:53:03.642Z,98995.64
2019-06-20T02:54:38.645Z,98989.33
2019-06-20T02:56:13.042Z,98986.67
2019-06-20T02:57:47.981Z,98987.03
2019-06-20T02:59:22.335Z,98992.02
2019-06-20T03:00:58.860Z,98995.34
2019-06-20T03:02:33.273Z,98993.30
2019-06-20T03:04:08.308Z,98995.77
2019-06-20T03:05:44.529Z,98991.59
2019-06-20T03:07:19.548Z,98997.26
2019-06-20T03:08:54.004Z,98988.31
2019-06-20T03:10:28.933Z,98988.31
2019-06-20T03:12:03.670Z,98998.28
2019-06-20T03:13:38.391Z,99000.25
2019-06-20T03:15:13.017Z,98999.67
2019-06-20T03:16:47.941Z,98985.59
2019-06-20T03:18:22.300Z,98995.48
2019-06-20T03:19:57.293Z,98994.80
2019-06-20T03:21:34.324Z,98999.83
2019-06-20T03:23:09.271Z,98989.13
2019-06-20T03:24:43.626Z,99000.88
2019-06-20T03:26:18.552Z,99000.88
2019-06-20T03:27:52.938Z,99000.67
2019-06-20T03:29:27.947Z,98998.76
2019-06-20T03:31:02.310Z,98997.67
2019-06-20T03:32:37.238Z,99009.92
2019-06-20T03:34:11.643Z,98998.86
2019-06-20T03:35:46.568Z,98993.05
2019-06-20T03:37:20.914Z,98999.89
2019-06-20T03:38:55.847Z,99016.43
2019-06-20T03:40:30.232Z,99001.31
2019-06-20T03:42:05.260Z,98992.85
2019-06-20T03:43:39.747Z,98992.85
2019-06-20T03:45:15.429Z,99002.73
2019-06-20T03:46:49.805Z,99002.73
2019-06-20T03:48:24.732Z,99003.20
2019-06-20T03:50:00.734Z,99003.20
2019-06-20T03:51:35.686Z,99011.78
2019-06-20T03:53:10.027Z,99011.56
2019-06-20T03:54:44.999Z,99012.91
2019-06-20T03:56:20.702Z,99012.91
2019-06-20T03:57:55.630Z,99013.16
2019-06-20T03:59:29.974Z,99004.41
2019-06-20T04:01:05.015Z,99004.41
2019-06-20T04:02:39.408Z,99021.66
2019-06-20T04:04:14.340Z,99029.52
2019-06-20T04:05:49.055Z,99029.52
2019-06-20T04:07:23.978Z,99020.92
2019-06-20T04:08:58.391Z,99004.50
2019-06-20T04:10:33.594Z,99004.50
2019-06-20T04:12:08.176Z,99008.97
2019-06-20T04:13:43.191Z,99008.97
2019-06-20T04:15:19.366Z,99024.48
2019-06-20T04:16:54.276Z,99024.89
2019-06-20T04:18:28.630Z,99030.05
2019-06-20T04:20:04.244Z,99026.91
2019-06-20T04:21:38.576Z,99028.25
2019-06-20T04:23:13.540Z,99032.05
2019-06-20T04:24:47.900Z,99023.77
2019-06-20T04:26:22.832Z,99023.77
2019-06-20T04:27:57.280Z,99028.57
2019-06-20T04:29:35.771Z,99025.56
2019-06-20T04:31:08.327Z,99025.56
2019-06-20T04:32:43.369Z,99028.61
2019-06-20T04:34:17.760Z,99035.02
2019-06-20T04:35:52.428Z,99026.42
2019-06-20T04:37:26.765Z,99027.25
2019-06-20T04:39:01.752Z,99026.67
2019-06-20T04:40:36.131Z,99031.53
2019-06-20T04:42:10.777Z,99034.51
2019-06-20T04:43:45.113Z,99041.00
2019-06-20T04:45:35.312Z,99034.33
2019-06-20T04:47:13.548Z,99035.50
2019-06-20T04:48:48.529Z,99040.75
2019-06-20T04:50:24.349Z,99040.67
2019-06-20T04:51:59.367Z,99044.30
2019-06-20T04:53:33.699Z,99044.62
2019-06-20T04:55:08.615Z,99039.63
2019-06-20T04:56:42.989Z,99043.07
2019-06-20T04:58:17.912Z,99046.32
2019-06-20T04:59:53.878Z,99042.46
2019-06-20T05:01:28.535Z,99043.70
2019-06-20T05:03:03.054Z,99049.23
2019-06-20T05:04:37.977Z,99046.05
2019-06-20T05:06:12.300Z,99038.39
2019-06-20T05:07:48.221Z,99035.34
2019-06-20T05:09:22.583Z,99033.09
2019-06-20T05:10:57.497Z,99037.62
2019-06-20T05:12:32.140Z,99041.24
2019-06-20T05:14:07.069Z,99036.84
2019-06-20T05:15:52.191Z,99035.78
2019-06-20T05:17:18.098Z,99031.23
2019-06-20T05:18:52.430Z,99029.59
2019-06-20T05:20:27.081Z,99033.77
2019-06-20T05:22:01.436Z,99034.77
2019-06-20T05:23:36.098Z,99035.38
2019-06-20T05:25:11.176Z,99039.13
2019-06-20T05:26:46.109Z,99034.52
2019-06-20T05:28:20.476Z,99034.23
2019-06-20T05:29:55.392Z,99029.91
2019-06-20T05:31:29.728Z,99034.91
2019-06-20T05:33:04.716Z,99034.07
2019-06-20T05:34:39.073Z,99034.48
2019-06-20T05:36:13.987Z,99041.45
2019-06-20T05:37:48.336Z,99031.48
2019-06-20T05:39:23.225Z,99029.59
2019-06-20T05:40:57.599Z,99028.25
2019-06-20T05:42:32.502Z,99025.95
2019-06-20T05:44:06.831Z,99029.46
2019-06-20T05:45:44.438Z,99031.19
2019-06-20T05:47:17.872Z,99026.09
2019-06-20T05:48:52.571Z,99027.09
2019-06-20T05:50:26.912Z,99035.59
2019-06-20T05:52:01.824Z,99022.33
2019-06-20T05:53:36.264Z,99029.09
2019-06-20T05:55:11.399Z,99027.10
2019-06-20T05:56:45.731Z,99029.06
2019-06-20T05:58:20.690Z,99027.30
2019-06-20T05:59:55.721Z,99022.79
2019-06-20T06:01:30.635Z,99031.70
2019-06-20T06:03:07.130Z,99027.27
2019-06-20T06:04:41.722Z,99025.60
2019-06-20T06:06:16.055Z,99026.20
2019-06-20T06:07:51.088Z,99025.27
2019-06-20T06:09:25.462Z,99024.03
2019-06-20T06:11:00.123Z,99022.70
2019-06-20T06:12:36.358Z,99014.45
2019-06-20T06:14:11.406Z,99026.80
2019-06-20T06:15:45.908Z,99029.46
2019-06-20T06:17:21.109Z,99022.03
2019-06-20T06:18:55.552Z,99022.00
2019-06-20T06:20:32.019Z,99022.53
2019-06-20T06:22:06.343Z,99023.47
2019-06-20T06:23:41.307Z,99027.42
2019-06-20T06:25:15.964Z,99024.60
2019-06-20T06:26:50.844Z,99029.28
2019-06-20T06:28:25.310Z,99026.17
2019-06-20T06:30:00.258Z,99030.59
2019-06-20T06:31:36.170Z,99031.64
2019-06-20T06:33:11.095Z,99034.63
2019-06-20T06:34:45.535Z,99032.69
2019-06-20T06:36:20.222Z,99031.94
2019-06-20T06:37:54.561Z,99035.81
2019-06-20T06:39:29.491Z,99037.36
2019-06-20T06:41:04.212Z,99038.41
2019-06-20T06:42:39.166Z,99032.02
2019-06-20T06:44:13.503Z,99032.33
2019-06-20T06:45:48.419Z,99035.99
2019-06-20T06:47:22.793Z,99031.25
2019-06-20T06:48:57.747Z,99034.84
2019-06-20T06:50:32.031Z,99022.54
2019-06-20T06:52:07.005Z,99031.81
2019-06-20T06:53:41.332Z,99031.69
2019-06-20T06:55:17.990Z,99038.29
2019-06-20T06:56:52.309Z,99042.56
2019-06-20T06:58:27.363Z,99040.30
2019-06-20T07:00:01.675Z,99035.80
2019-06-20T07:01:36.579Z,99039.18
2019-06-20T07:03:11.000Z,99042.24
2019-06-20T07:04:46.029Z,99036.15
2019-06-20T07:06:20.355Z,99030.48
2019-06-20T07:07:55.270Z,99029.83
2019-06-20T07:09:29.620Z,99026.84
2019-06-20T07:11:04.746Z,99027.14
2019-06-20T07:12:39.595Z,99027.08
2019-06-20T07:14:14.562Z,99031.52
2019-06-20T07:15:48.918Z,99027.73
2019-06-20T07:17:23.953Z,99019.02
2019-06-20T07:18:58.283Z,99024.00
2019-06-20T07:20:33.202Z,99014.75
2019-06-20T07:22:07.535Z,99011.63
2019-06-20T07:23:42.492Z,99007.55
2019-06-20T07:25:16.819Z,99012.97
2019-06-20T07:26:52.051Z,99011.30
2019-06-20T07:28:26.448Z,99007.88
2019-06-20T07:30:02.011Z,99009.22
2019-06-20T07:31:36.373Z,99009.97
2019-06-20T07:33:12.002Z,99007.54
2019-06-20T07:34:46.426Z,99015.14
2019-06-20T07:36:21.344Z,99014.05
2019-06-20T07:37:55.688Z,99014.25
2019-06-20T07:39:30.607Z,99025.05
2019-06-20T07:41:04.982Z,99017.85
2019-06-20T07:42:40.490Z,98996.48
2019-06-20T07:44:14.903Z,99011.42
2019-06-20T07:46:01.997Z,99009.53
2019-06-20T07:47:25.898Z,99008.44
2019-06-20T07:49:00.841Z,99010.37
2019-06-20T07:50:35.175Z,99016.53
2019-06-20T07:52:10.102Z,99014.95
2019-06-20T07:53:44.420Z,99010.03
2019-06-20T07:55:19.927Z,99007.73
2019-06-20T07:56:54.301Z,99013.20
2019-06-20T07:58:29.606Z,99009.41
2019-06-20T08:00:06.913Z,99003.22
2019-06-20T08:01:41.824Z,99006.89
2019-06-20T08:03:16.197Z,99007.52
2019-06-20T08:04:51.111Z,99004.67
2019-06-20T08:06:25.439Z,99004.11
2019-06-20T08:08:00.464Z,99005.74
2019-06-20T08:09:44.848Z,99004.31
2019-06-20T08:11:11.602Z,99006.58
2019-06-20T08:12:46.376Z,99011.27
2019-06-20T08:14:21.352Z,99011.88
2019-06-20T08:15:55.932Z,99007.53
2019-06-20T08:17:35.626Z,99007.06
2019-06-20T08:19:07.556Z,99005.14
2019-06-20T08:20:42.475Z,99007.42
2019-06-20T08:22:16.896Z,99009.77
2019-06-20T08:23:51.839Z,99008.36
2019-06-20T08:25:26.165Z,99008.91
2019-06-20T08:27:03.086Z,99012.53
2019-06-20T08:28:37.175Z,99013.61
2019-06-20T08:30:12.239Z,99009.19
2019-06-20T08:31:46.740Z,99004.78
2019-06-20T08:33:21.635Z,99009.58
2019-06-20T08:34:56.619Z,99013.91
2019-06-20T08:36:32.821Z,99010.94
2019-06-20T08:38:07.604Z,99010.30
2019-06-20T08:39:42.683Z,99007.40
2019-06-20T08:41:17.013Z,99011.53
2019-06-20T08:42:52.035Z,99003.89
2019-06-20T08:44:26.385Z,99009.45
2019-06-20T08:46:01.718Z,99002.78
2019-06-20T08:47:36.102Z,99003.12
2019-06-20T08:49:10.752Z,99002.59
2019-06-20T08:50:45.117Z,99007.40
2019-06-20T08:52:20.105Z,99000.02
2019-06-20T08:53:55.758Z,99004.36
2019-06-20T08:55:31.292Z,98996.73
2019-06-20T08:57:05.992Z,99000.55
2019-06-20T08:58:40.908Z,99001.81
2019-06-20T09:00:18.088Z,99004.10
2019-06-20T09:01:56.004Z,99002.23
2019-06-20T09:03:29.052Z,99001.94
2019-06-20T09:05:05.219Z,98999.64
2019-06-20T09:06:39.611Z,98988.10
2019-06-20T09:08:14.282Z,98997.64
2019-06-20T09:09:48.599Z,98988.89
2019-06-20T09:11:23.563Z,98985.80
2019-06-20T09:12:59.125Z,98980.16
2019-06-20T09:14:34.127Z,98983.53
2019-06-20T09:16:21.206Z,98980.55
2019-06-20T09:17:45.731Z,98975.95
2019-06-20T09:19:20.143Z,98979.98
2019-06-20T09:20:55.978Z,98971.81
2019-06-20T09:22:30.673Z,98970.16
2019-06-20T09:24:05.676Z,98970.52
2019-06-20T09:25:40.020Z,98966.96
2019-06-20T09:27:14.998Z,98967.38
2019-06-20T09:28:50.938Z,98965.83
2019-06-20T09:30:26.272Z,98961.73
2019-06-20T09:32:00.657Z,98965.64
2019-06-20T09:33:35.570Z,98951.83
2019-06-20T09:35:10.943Z,98958.56
2019-06-20T09:36:47.741Z,98959.56
2019-06-20T09:38:23.737Z,98950.91
2019-06-20T09:39:59.189Z,98953.03
2019-06-20T09:41:33.770Z,98954.98
2019-06-20T09:43:08.806Z,98964.05
2019-06-20T09:44:43.119Z,98966.22
2019-06-20T09:46:18.073Z,98959.16
2019-06-20T09:47:53.530Z,98954.50
2019-06-20T09:49:28.780Z,98953.17
2019-06-20T09:51:03.156Z,98952.86
2019-06-20T09:52:38.072Z,98954.36
2019-06-20T09:54:12.410Z,98955.28
2019-06-20T09:55:48.387Z,98961.66
2019-06-20T09:57:23.148Z,98953.92
2019-06-20T09:58:58.358Z,98953.30
2019-06-20T10:00:33.757Z,98951.16
2019-06-20T10:02:09.128Z,98954.51
2019-06-20T10:03:43.439Z,98947.60
2019-06-20T10:05:18.192Z,98953.21
2019-06-20T10:06:52.563Z,98945.94
2019-06-20T10:08:27.489Z,98943.28
2019-06-20T10:10:01.965Z,98942.09
2019-06-20T10:11:36.659Z,98947.23
2019-06-20T10:13:11.250Z,98940.50
2019-06-20T10:14:46.897Z,98948.59
2019-06-20T10:16:21.931Z,98940.31
2019-06-20T10:17:57.341Z,98942.60
2019-06-20T10:19:31.739Z,98942.16
2019-06-20T10:21:06.662Z,98937.23
2019-06-20T10:22:41.035Z,98937.90
2019-06-20T10:24:15.951Z,98947.33
2019-06-20T10:25:51.487Z,98937.88
2019-06-20T10:27:26.566Z,98937.91
2019-06-20T10:29:01.003Z,98936.66
2019-06-20T10:30:35.989Z,98934.83
2019-06-20T10:32:10.322Z,98938.28
2019-06-20T10:33:46.889Z,98936.19
2019-06-20T10:35:21.560Z,98929.47
2019-06-20T10:36:57.109Z,98927.00
2019-06-20T10:38:31.596Z,98918.13
2019-06-20T10:40:08.433Z,98922.50
2019-06-20T10:41:44.685Z,98917.20
2019-06-20T10:43:19.430Z,98916.35
2019-06-20T10:44:53.802Z,98912.41
2019-06-20T10:46:28.707Z,98905.92
2019-06-20T10:48:03.117Z,98914.67
2019-06-20T10:49:38.058Z,98913.29
2019-06-20T10:51:30.305Z,98908.31
2019-06-20T10:53:04.733Z,98913.05
2019-06-20T10:54:41.614Z,98912.81
2019-06-20T10:56:15.941Z,98913.29
2019-06-20T10:57:51.922Z,98909.91
2019-06-20T10:59:26.542Z,98906.00
2019-06-20T11:01:01.495Z,98906.81
2019-06-20T11:02:35.897Z,98895.63
2019-06-20T11:04:10.815Z,98896.97
2019-06-20T11:05:45.529Z,98890.35
2019-06-20T11:07:20.571Z,98885.63
2019-06-20T11:08:54.904Z,98889.05
2019-06-20T11:10:31.138Z,98883.59
2019-06-20T11:12:05.546Z,98887.02
2019-06-20T11:13:40.716Z,98881.06
2019-06-20T11:15:15.446Z,98886.65
2019-06-20T11:16:51.832Z,98887.00
2019-06-20T11:18:26.209Z,98880.89
2019-06-20T11:20:01.410Z,98876.43
2019-06-20T11:21:37.926Z,98879.77
2019-06-20T11:23:12.478Z,98884.09
2019-06-20T11:24:48.479Z,98874.38
2019-06-20T11:26:26.135Z,98869.11
2019-06-20T11:28:00.465Z,98873.18
2019-06-20T11:29:37.769Z,98868.95
2019-06-20T11:31:14.122Z,98872.25
2019-06-20T11:32:49.052Z,98870.00
2019-06-20T11:34:23.401Z,98877.52
2019-06-20T11:35:58.338Z,98869.41
2019-06-20T11:37:32.662Z,98863.81
2019-06-20T11:39:08.476Z,98870.41
2019-06-20T11:40:43.889Z,98861.56
2019-06-20T11:42:19.044Z,98869.03
2019-06-20T11:43:53.373Z,98859.44
2019-06-20T11:45:28.476Z,98858.48
2019-06-20T11:47:02.919Z,98859.63
2019-06-20T11:48:38.472Z,98845.60
2019-06-20T11:50:15.180Z,98837.55
2019-06-20T11:51:50.158Z,98834.59
2019-06-20T11:53:24.480Z,98837.52
2019-06-20T11:54:59.402Z,98839.01
2019-06-20T11:56:33.725Z,98834.45
2019-06-20T11:58:08.790Z,98830.45
2019-06-20T11:59:43.074Z,98829.16
2019-06-20T12:01:32.098Z,98832.98
2019-06-20T12:02:54.035Z,98828.41
2019-06-20T12:04:29.011Z,98831.30
2019-06-20T12:06:03.341Z,98818.01
2019-06-20T12:07:39.590Z,98821.02
2019-06-20T12:09:14.404Z,98818.08
2019-06-20T12:10:49.511Z,98816.09
2019-06-20T12:12:23.865Z,98808.06
2019-06-20T12:13:59.038Z,98805.74
2019-06-20T12:15:33.368Z,98797.30
2019-06-20T12:17:08.317Z,98791.09
2019-06-20T12:18:43.123Z,98799.41
2019-06-20T12:20:19.050Z,98800.14
2019-06-20T12:21:53.676Z,98797.20
2019-06-20T12:23:28.630Z,98792.48
2019-06-20T12:25:05.309Z,98791.77
2019-06-20T12:26:40.792Z,98792.47
2019-06-20T12:28:15.594Z,98796.12
2019-06-20T12:29:50.617Z,98787.61
2019-06-20T12:31:25.017Z,98792.17
2019-06-20T12:32:59.935Z,98786.87
2019-06-20T12:34:34.274Z,98793.41
2019-06-20T12:36:09.320Z,98793.72
2019-06-20T12:37:45.435Z,98786.49
2019-06-20T12:39:20.345Z,98781.93
2019-06-20T12:40:54.745Z,98782.14
2019-06-20T12:42:29.400Z,98784.40
2019-06-20T12:44:03.733Z,98789.47
2019-06-20T12:45:40.045Z,98779.95
2019-06-20T12:47:14.759Z,98772.66
2019-06-20T12:48:49.423Z,98770.81
2019-06-20T12:50:24.806Z,98776.95
2019-06-20T12:51:59.736Z,98771.17
2019-06-20T12:53:34.062Z,98769.24
2019-06-20T12:55:09.085Z,98767.67
2019-06-20T12:56:46.271Z,98761.66
2019-06-20T12:58:22.759Z,98766.58
2019-06-20T12:59:57.490Z,98765.75
2019-06-20T13:01:38.960Z,98768.33
2019-06-20T13:03:10.015Z,98763.57
2019-06-20T13:04:46.027Z,98759.76
2019-06-20T13:06:20.566Z,98760.36
2019-06-20T13:07:55.776Z,98756.20
2019-06-20T13:09:30.112Z,98754.64
2019-06-20T13:11:05.139Z,98748.48
2019-06-20T13:12:40.832Z,98750.38
2019-06-20T13:14:16.342Z,98745.27
2019-06-20T13:15:50.670Z,98734.81
2019-06-20T13:17:25.584Z,98739.16
2019-06-20T13:18:59.960Z,98744.77
2019-06-20T13:20:34.880Z,98750.39
2019-06-20T13:22:09.207Z,98749.33
2019-06-20T13:23:45.044Z,98751.01
2019-06-20T13:25:19.988Z,98747.47
2019-06-20T13:26:54.895Z,98752.86
2019-06-20T13:28:29.226Z,98748.56
2019-06-20T13:30:05.986Z,98736.07
2019-06-20T13:31:56.242Z,98743.40
2019-06-20T13:33:16.994Z,98748.78
2019-06-20T13:34:51.335Z,98748.20
2019-06-20T13:36:26.251Z,98750.81
2019-06-20T13:38:00.613Z,98750.84
2019-06-20T13:39:35.786Z,98744.48
2019-06-20T13:41:10.146Z,98748.59
2019-06-20T13:42:46.148Z,98743.57
2019-06-20T13:44:21.800Z,98753.47
2019-06-20T13:45:56.756Z,98753.50
2019-06-20T13:47:31.087Z,98758.98
2019-06-20T13:49:06.011Z,98760.38
2019-06-20T13:50:41.878Z,98764.05
2019-06-20T13:52:17.869Z,98761.17
2019-06-20T13:53:52.204Z,98763.16
2019-06-20T13:55:27.129Z,98767.98
2019-06-20T13:57:01.456Z,98763.55
2019-06-20T13:58:36.372Z,98771.30
2019-06-20T14:00:11.702Z,98772.16
2019-06-20T14:01:47.747Z,98777.16
2019-06-20T14:03:22.725Z,98769.13
2019-06-20T14:04:57.639Z,98777.00
2019-06-20T14:06:31.962Z,98778.23
2019-06-20T14:08:06.940Z,98779.02
2019-06-20T14:09:41.601Z,98782.55
2019-06-20T14:11:17.960Z,98789.63
2019-06-20T14:12:52.282Z,98791.14
2019-06-20T14:14:27.600Z,98794.65
2019-06-20T14:16:01.929Z,98788.38
2019-06-20T14:17:36.838Z,98793.98
2019-06-20T14:19:11.159Z,98789.08
2019-06-20T14:20:46.714Z,98790.25
2019-06-20T14:22:21.244Z,98791.05
2019-06-20T14:23:56.690Z,98790.41
2019-06-20T14:25:34.164Z,98792.22
2019-06-20T14:27:07.840Z,98795.05
2019-06-20T14:28:43.049Z,98792.22
2019-06-20T14:30:19.868Z,98793.41
2019-06-20T14:31:54.191Z,98788.45
2019-06-20T14:33:31.841Z,98791.10
2019-06-20T14:35:06.687Z,98785.13
2019-06-20T14:36:42.898Z,98782.03
2019-06-20T14:38:17.685Z,98778.88
2019-06-20T14:39:52.701Z,98780.55
2019-06-20T14:41:27.445Z,98781.39
2019-06-20T14:43:02.355Z,98781.19
2019-06-20T14:44:36.684Z,98783.22
2019-06-20T14:46:11.597Z,98781.02
2019-06-20T14:47:45.971Z,98782.08
2019-06-20T14:49:20.872Z,98781.31
2019-06-20T14:50:55.495Z,98778.31
2019-06-20T14:52:30.689Z,98782.73
2019-06-20T14:54:05.147Z,98782.64
2019-06-20T14:55:40.066Z,98777.66
2019-06-20T14:57:14.791Z,98773.23
2019-06-20T14:58:51.438Z,98781.22
2019-06-20T15:00:26.590Z,98784.64
2019-06-20T15:02:02.954Z,98786.92
2019-06-20T15:03:37.337Z,98784.67
2019-06-20T15:05:17.500Z,98780.56
2019-06-20T15:06:52.388Z,98778.28
2019-06-20T15:08:27.676Z,98777.56
2019-06-20T15:10:03.856Z,98776.48
2019-06-20T15:11:38.620Z,98772.23
2019-06-20T15:13:13.354Z,98774.84
2019-06-20T15:14:49.810Z,98777.22
2019-06-20T15:16:24.837Z,98775.41
2019-06-20T15:17:59.778Z,98778.56
2019-06-20T15:19:34.127Z,98770.67
2019-06-20T15:21:09.052Z,98772.81
2019-06-20T15:22:43.475Z,98769.53
2019-06-20T15:24:18.392Z,98768.73
2019-06-20T15:25:54.117Z,98769.05
2019-06-20T15:27:29.151Z,98764.63
2019-06-20T15:29:06.176Z,98764.72
2019-06-20T15:30:40.564Z,98758.67
2019-06-20T15:32:14.935Z,98766.22
2019-06-20T15:33:51.495Z,98761.97
2019-06-20T15:35:25.897Z,98760.36
2019-06-20T15:37:00.873Z,98762.95
2019-06-20T15:38:35.253Z,98760.02
2019-06-20T15:40:10.967Z,98748.06
2019-06-20T15:41:45.338Z,98750.41
2019-06-20T15:43:20.250Z,98745.34
2019-06-20T15:44:55.668Z,98752.49
2019-06-20T15:46:30.762Z,98754.91
2019-06-20T15:48:05.235Z,98754.67
2019-06-20T15:49:40.164Z,98762.33
2019-06-20T15:51:14.552Z,98764.63
2019-06-20T15:52:49.463Z,98763.34
2019-06-20T15:54:24.618Z,98764.09
2019-06-20T15:55:59.635Z,98765.14
2019-06-20T15:57:34.018Z,98765.14
2019-06-20T15:59:09.010Z,98769.44
2019-06-20T16:00:43.643Z,98768.06
2019-06-20T16:02:18.692Z,98772.36
2019-06-20T16:03:53.055Z,98772.55
2019-06-20T16:05:27.968Z,98767.95
2019-06-20T16:07:02.402Z,98770.88
2019-06-20T16:08:37.308Z,98776.09
2019-06-20T16:10:13.076Z,98776.56
2019-06-20T16:11:48.041Z,98785.16
2019-06-20T16:13:22.387Z,98780.06
2019-06-20T16:14:57.698Z,98783.94
2019-06-20T16:16:32.022Z,98786.67
2019-06-20T16:18:06.978Z,98787.92
2019-06-20T16:19:41.309Z,98794.52
2019-06-20T16:21:16.223Z,98791.34
2019-06-20T16:22:50.731Z,98794.38
2019-06-20T16:24:25.672Z,98795.17
2019-06-20T16:26:00.041Z,98797.70
2019-06-20T16:27:35.034Z,98804.13
2019-06-20T16:29:09.429Z,98800.72
2019-06-20T16:30:44.881Z,98810.75
2019-06-20T16:32:19.218Z,98804.67
2019-06-20T16:33:54.128Z,98802.75
2019-06-20T16:35:28.565Z,98805.80
2019-06-20T16:37:10.208Z,98805.08
2019-06-20T16:38:39.527Z,98804.49
2019-06-20T16:40:15.504Z,98804.55
2019-06-20T16:41:49.881Z,98813.41
2019-06-20T16:43:24.801Z,98811.09
2019-06-20T16:44:59.133Z,98806.78
2019-06-20T16:46:34.757Z,98811.23
2019-06-20T16:48:09.544Z,98799.02
2019-06-20T16:49:44.452Z,98803.45
2019-06-20T16:51:18.781Z,98814.69
2019-06-20T16:52:53.725Z,98824.22
2019-06-20T16:54:28.053Z,98820.70
2019-06-20T16:56:03.013Z,98832.45
2019-06-20T16:57:37.386Z,98828.89
2019-06-20T16:59:14.251Z,98825.30
2019-06-20T17:00:48.346Z,98837.20
2019-06-20T17:02:23.660Z,98835.85
2019-06-20T17:03:58.031Z,98835.16
2019-06-20T17:05:32.957Z,98837.72
2019-06-20T17:07:07.294Z,98858.23
2019-06-20T17:08:42.275Z,98862.92
2019-06-20T17:10:16.763Z,98870.98
2019-06-20T17:11:51.678Z,98863.53
2019-06-20T17:13:26.009Z,98860.50
2019-06-20T17:15:01.289Z,98872.04
2019-06-20T17:16:35.683Z,98878.16
2019-06-20T17:18:11.263Z,98881.55
2019-06-20T17:19:45.581Z,98883.59
2019-06-20T17:21:20.269Z,98887.33
2019-06-20T17:22:54.599Z,98886.97
2019-06-20T17:24:29.578Z,98890.05
2019-06-20T17:26:03.963Z,98895.15
2019-06-20T17:27:38.874Z,98893.80
2019-06-20T17:29:13.202Z,98901.81
2019-06-20T17:30:48.154Z,98894.45
2019-06-20T17:32:22.551Z,98889.72
2019-06-20T17:33:58.118Z,98894.13
2019-06-20T17:35:32.575Z,98882.25
2019-06-20T17:37:07.501Z,98873.06
2019-06-20T17:38:41.870Z,98865.42
2019-06-20T17:40:18.304Z,98870.52
2019-06-20T17:41:55.605Z,98872.05
2019-06-20T17:43:29.330Z,98877.47
2019-06-20T17:45:05.022Z,98872.41
2019-06-20T17:46:40.038Z,98873.59
2019-06-20T17:48:14.371Z,98871.87
2019-06-20T17:49:49.309Z,98874.08
2019-06-20T17:51:23.642Z,98869.31
2019-06-20T17:52:58.591Z,98867.95
2019-06-20T17:54:32.916Z,98868.98
2019-06-20T17:56:07.850Z,98869.31
2019-06-20T17:57:42.189Z,98867.95
2019-06-20T17:59:17.136Z,98862.52
2019-06-20T18:00:51.481Z,98864.90
2019-06-20T18:02:26.387Z,98860.81
2019-06-20T18:04:12.933Z,98862.31
2019-06-20T18:05:37.573Z,98860.74
2019-06-20T18:07:11.886Z,98860.23
2019-06-20T18:08:46.798Z,98856.31
2019-06-20T18:10:21.529Z,98859.34
2019-06-20T18:11:56.657Z,98858.42
2019-06-20T18:13:30.981Z,98849.77
2019-06-20T18:15:08.011Z,98849.38
2019-06-20T18:16:42.440Z,98848.38
2019-06-20T18:18:17.365Z,98851.02
2019-06-20T18:19:51.761Z,98852.36
2019-06-20T18:21:26.963Z,98855.41
2019-06-20T18:23:01.345Z,98850.31
2019-06-20T18:24:36.311Z,98856.69
2019-06-20T18:26:10.682Z,98859.94
2019-06-20T18:27:45.587Z,98861.14
2019-06-20T18:29:20.088Z,98855.37
2019-06-20T18:30:55.008Z,98851.59
2019-06-20T18:32:29.451Z,98863.73
2019-06-20T18:34:04.388Z,98869.45
2019-06-20T18:35:39.161Z,98867.73
2019-06-20T18:37:30.155Z,98880.86
2019-06-20T18:38:50.377Z,98883.98
2019-06-20T18:40:25.339Z,98895.03
2019-06-20T18:41:59.688Z,98897.09
2019-06-20T18:43:34.734Z,98902.38
2019-06-20T18:45:09.965Z,98899.98
2019-06-20T18:46:44.933Z,98898.92
2019-06-20T18:48:19.589Z,98897.91
2019-06-20T18:49:54.619Z,98895.20
2019-06-20T18:51:29.114Z,98888.78
2019-06-20T18:53:04.096Z,98900.31
2019-06-20T18:54:38.430Z,98898.63
2019-06-20T18:56:13.582Z,98894.72
2019-06-20T18:57:48.059Z,98903.47
2019-06-20T18:59:23.155Z,98906.65
2019-06-20T19:00:57.706Z,98915.89
2019-06-20T19:02:32.677Z,98917.05
2019-06-20T19:04:07.107Z,98921.54
2019-06-20T19:05:42.178Z,98913.91
2019-06-20T19:07:16.794Z,98922.94
2019-06-20T19:08:51.972Z,98919.70
2019-06-20T19:10:26.404Z,98916.03
2019-06-20T19:12:01.541Z,98917.05
2019-06-20T19:13:35.906Z,98932.06
2019-06-20T19:15:11.939Z,98940.66
2019-06-20T19:16:46.397Z,98953.62
2019-06-20T19:18:23.125Z,98957.16
2019-06-20T19:19:57.475Z,98957.95
2019-06-20T19:21:32.399Z,98963.99
2019-06-20T19:23:06.950Z,98956.50
2019-06-20T19:24:41.626Z,98957.27
2019-06-20T19:26:16.022Z,98955.52
2019-06-20T19:27:51.018Z,98955.80
2019-06-20T19:29:25.340Z,98964.42
2019-06-20T19:31:00.312Z,98957.89
2019-06-20T19:32:34.635Z,98958.95
2019-06-20T19:34:09.594Z,98959.34
2019-06-20T19:35:43.983Z,98958.70
2019-06-20T19:37:19.029Z,98952.02
2019-06-20T19:38:53.409Z,98953.31
2019-06-20T19:40:31.234Z,98961.45
2019-06-20T19:42:05.661Z,98956.67
2019-06-20T19:43:40.610Z,98965.36
2019-06-20T19:45:16.581Z,98960.38
2019-06-20T19:46:53.627Z,98962.00
2019-06-20T19:48:27.958Z,98970.02
2019-06-20T19:50:02.933Z,98968.17
2019-06-20T19:51:37.358Z,98979.23
2019-06-20T19:53:12.834Z,98987.51
2019-06-20T19:54:47.172Z,98978.00
2019-06-20T19:56:22.192Z,98981.96
2019-06-20T19:57:56.523Z,98985.55
2019-06-20T19:59:31.270Z,99000.26
2019-06-20T20:01:05.628Z,99002.52
2019-06-20T20:02:40.695Z,99003.78
2019-06-20T20:04:15.018Z,99008.44
2019-06-20T20:05:50.047Z,99009.44
2019-06-20T20:07:24.394Z,99007.36
2019-06-20T20:08:59.772Z,99004.58
2019-06-20T20:10:49.881Z,99010.10
2019-06-20T20:12:24.786Z,99007.28
2019-06-20T20:13:59.154Z,99012.31
2019-06-20T20:15:34.650Z,99020.75
2019-06-20T20:17:08.965Z,99017.70
2019-06-20T20:18:43.890Z,99026.70
2019-06-20T20:20:18.667Z,99019.75
2019-06-20T20:21:53.564Z,99023.63
2019-06-20T20:23:27.878Z,99029.01
2019-06-20T20:25:03.402Z,99028.66
2019-06-20T20:26:37.801Z,99029.92
2019-06-20T20:28:12.694Z,99025.05
2019-06-20T20:29:47.030Z,99024.09
2019-06-20T20:31:21.993Z,99019.05
2019-06-20T20:32:56.337Z,99022.02
2019-06-20T20:34:31.250Z,99021.35
2019-06-20T20:36:05.598Z,99022.00
2019-06-20T20:37:40.537Z,99017.39
2019-06-20T20:39:16.921Z,99026.59
2019-06-20T20:40:52.001Z,99027.33
2019-06-20T20:42:26.348Z,99024.32
2019-06-20T20:44:01.275Z,99028.84
2019-06-20T20:45:35.564Z,99021.92
2019-06-20T20:47:10.533Z,99025.89
2019-06-20T20:48:44.855Z,99021.05
2019-06-20T20:50:20.670Z,99019.86